• Join FlightAware (Why Join?)
  • Login
  • US Flag 
01:53PM EDT


 

Airport Tracker/Info


-or-


 

Live Flight TrackerFlight Track Log ✈ DAL3799 ✈ 25-Sep-2013 ✈ KIAD - KDTW

Flight Track Log - Related Links

Times and Time Zones

All times are in EDT time to prevent confusion due to time zone crossing. See the DAL3799 flight status page for this flight to view local times or setup timezone preferences in your user account.

Time Position Orientation Groundspeed Altitude Reporting Facility
EDT Latitude Longitude Course Direction KTS MPH feet Rate Location/Type
05:20PM 38.9667 -77.4500 333° Northwest 162 186 2,200  Level Potomac TRACON
05:21PM 39.0167 -77.4833 333° Northwest 209 241 4,200 1,920 Climbing Potomac TRACON
05:22PM 39.0833 -77.5333 330° Northwest 270 311 6,100 2,100 Climbing Potomac TRACON
05:23PM 39.1500 -77.5833 330° Northwest 281 323 8,500 2,280 Climbing Potomac TRACON
05:24PM 39.2167 -77.6333 330° Northwest 295 339 10,700 1,440 Climbing Potomac TRACON
05:25PM 39.3325 -77.7167 331° Northwest 344 396 12,100 1,140 Climbing Washington Center
05:26PM 39.4167 -77.7756 332° Northwest 344 396 13,600 1,260 Climbing Washington Center
05:27PM 39.5053 -77.8375 332° Northwest 349 402 14,700 1,260 Climbing Washington Center
05:28PM 39.5636 -77.9442 305° West 349 402 16,100 1,320 Climbing Washington Center
05:30PM 39.6222 -78.1478 291° West 377 434 18,100 1,140 Climbing Cleveland Center
05:31PM 39.6603 -78.2744 291° West 378 435 19,100 840 Climbing Cleveland Center
05:32PM 39.6986 -78.4053 291° West 390 449 19,900 720 Climbing Cleveland Center
05:33PM 39.7378 -78.5400 291° West 397 457 20,700 720 Climbing Cleveland Center
05:34PM 39.7778 -78.6764 291° West 404 465 21,400 780 Climbing Cleveland Center
05:35PM 39.8189 -78.8150 291° West 403 464 22,400 720 Climbing Cleveland Center
05:36PM 39.8650 -78.9692 291° West 408 470 23,000 480 Climbing Cleveland Center
05:37PM 39.9044 -79.1086 290° West 422 486 23,500 480 Climbing Cleveland Center
05:38PM 39.9439 -79.2472 290° West 418 481 24,000 240 Climbing Cleveland Center
05:39PM 39.9881 -79.3839 293° West 419 482 24,000  Level Cleveland Center
05:40PM 40.0525 -79.5083 304° West 426 490 24,000  Level Cleveland Center
05:41PM 40.1317 -79.6611 304° West 424 488 24,000  Level Cleveland Center
05:42PM 40.1975 -79.7908 304° West 428 493 24,000  Level Cleveland Center
05:43PM 40.2636 -79.9217 304° West 431 496 24,000  Level Cleveland Center
05:44PM 40.3339 -80.0597 304° West 435 501 24,000  Level Cleveland Center
05:45PM 40.3994 -80.1903 303° West 433 498 24,000  Level Cleveland Center
05:46PM 40.4669 -80.3239 304° West 438 504 24,000  Level Cleveland Center
05:48PM 40.5375 -80.4658 303° West 440 506 24,000  Level Cleveland Center
05:49PM 40.6064 -80.6039 303° West 443 510 24,000  Level Cleveland Center
05:50PM 40.6864 -80.7650 303° West 446 513 24,000  Level Cleveland Center
05:51PM 40.7536 -80.9019 303° West 447 514 24,000  Level Cleveland Center
05:52PM 40.8225 -81.0414 303° West 452 520 24,000  Level Cleveland Center
05:53PM 40.8917 -81.1856 302° West 452 520 24,000  Level Cleveland Center
05:54PM 40.9594 -81.3267 302° West 451 519 24,000  Level Cleveland Center
05:55PM 41.0283 -81.4689 303° West 452 520 24,000  Level Cleveland Center
05:56PM 41.0950 -81.6089 302° West 446 513 24,000  Level Cleveland Center
05:57PM 41.1686 -81.7631 302° West 442 509 24,000  Level Cleveland Center
05:58PM 41.2336 -81.8994 302° West 439 505 24,000  Level Cleveland Center
05:59PM 41.2978 -82.0347 302° West 436 502 24,000 -540 Level Cleveland Center
06:00PM 41.3733 -82.1886 303° West 436 502 22,900 -1,800 Descending Cleveland Center
06:01PM 41.4508 -82.3153 309° West 436 502 20,300 -2,460 Descending Cleveland Center
06:02PM 41.5042 -82.4108 307° West 430 495 18,400 -2,460 Descending Cleveland Center
06:02PM 41.5233 -82.4364 315° West 417 480 17,800 -2,640 Descending Cleveland Center
06:03PM 41.5664 -82.5081 309° West 398 458 16,200 -2,520 Descending Cleveland Center
06:03PM 41.5903 -82.5503 307° West 392 451 15,200 -2,460 Descending Cleveland Center
06:04PM 41.6297 -82.6164 309° West 369 425 13,700 -2,280 Descending Cleveland Center
06:04PM 41.6506 -82.6492 310° West 376 433 12,900 -1,560 Descending Cleveland Center
06:05PM 41.7028 -82.7375 308° West 359 413 12,000 -900 Descending Cleveland Center
06:05PM 41.7250 -82.7758 308° West 364 419 12,000  Level Cleveland Center
06:06PM 41.7614 -82.8208 317° Northwest 363 418 12,000  Level Cleveland Center
06:06PM 41.7986 -82.8653 318° Northwest 357 411 12,000  Level Cleveland Center
06:07PM 41.8500 -82.9275 318° Northwest 314 361 12,000  Level Cleveland Center
06:07PM 41.8636 -82.9419 322° Northwest 318 366 12,000  Level Cleveland Center
06:08PM 41.9017 -82.9906 316° Northwest 293 337 12,000  Level Cleveland Center
06:08PM 41.9219 -83.0122 322° Northwest 279 321 12,000  Level Cleveland Center
06:09PM 41.9536 -83.0536 316° Northwest 247 284 12,000  Level Cleveland Center
06:09PM 41.9833 -83.0883 319° Northwest 253 291 12,000  Level Cleveland Center
06:10PM 41.9983 -83.1272 297° West 250 288 12,000 -300 Level Cleveland Center
06:10PM 42.0139 -83.1747 294° West 258 297 11,700 -780 Descending Cleveland Center
06:11PM 42.0358 -83.2111 309° West 272 313 11,200 -720 Descending Cleveland Center
06:11PM 42.0789 -83.2325 340° North 271 312 11,000 -240 Descending Cleveland Center
06:12PM 42.1089 -83.2408 348° North 257 296 11,000 -300 Level Cleveland Center
06:12PM 42.1469 -83.2272 15° North 265 305 10,700 -900 Descending Cleveland Center
06:13PM 42.1717 -83.2158 19° North 242 278 10,100 -1,560 Descending Cleveland Center
06:13PM 42.2108 -83.1831 32° Northeast 242 278 9,100 -1,560 Descending Cleveland Center
06:14PM 42.2383 -83.1658 25° Northeast 239 275 8,400 -1,380 Descending Cleveland Center
06:15PM 42.2689 -83.1406 31° Northeast 241 277 7,700 -1,200 Descending Cleveland Center
06:15PM 42.2936 -83.1283 20° North 238 274 7,300 -960 Descending Cleveland Center
06:16PM 42.3261 -83.1025 30° Northeast 236 272 6,700 -720 Descending Cleveland Center
06:16PM 42.3506 -83.0967 10° North 223 257 6,600 -900 Descending Cleveland Center
06:17PM 42.3700 -83.1231 315° West 210 242 5,800 -1,380 Descending Cleveland Center
06:17PM 42.3878 -83.1583 304° West 191 220 5,100 -960 Descending Cleveland Center
06:18PM 42.3869 -83.1847 268° West 200 230 4,800 -1,020 Descending Cleveland Center
06:18PM 42.3703 -83.2208 238° Southwest 193 222 4,100 -1,500 Descending Cleveland Center
06:19PM 42.3419 -83.2439 211° Southwest 186 214 3,300 -1,140 Descending Cleveland Center
06:19PM 42.3236 -83.2567 207° Southwest 187 215 3,000 -900 Descending Cleveland Center
06:20PM 42.2958 -83.2756 207° Southwest 186 214 2,400 -1,020 Descending Cleveland Center
06:20PM 42.2814 -83.2875 211° Southwest 159 183 2,000 -900 Descending Cleveland Center
06:21PM 42.2575 -83.3042 207° Southwest 165 190 1,500 -780 Descending Cleveland Center
06:21PM 42.2458 -83.3136 211° Southwest 153 176 1,300 -780 Descending Cleveland Center
06:22PM 42.2203 -83.3317 208° Southwest 154 177 700 -720 Descending Cleveland Center